Grand Chenier, LA (70643)

1:07 AM CST on February 28, 2017 (GMT -0600)
Grand View Lodge | | Change Station

Elev 16 ft 29.84 °N, 93.00 °W | Updated 9 seconds ago

Overcast
Overcast
70.9 °F
Feels Like 70.9 °F
N
10.0
Wind Variable Wind from SE
Gusts 23.0 mph

Today
High -- | Low -- °F
--% Chance of Precip.
Yesterday
High -- | Low -- °F
Precip. -- in
Pressure 30.04 in
Visibility 7.0 miles
Clouds Few 900 ft
Scattered Clouds 2500 ft
Overcast 5500 ft
Dew Point 69 °F
Humidity 95%
Rainfall 0.00 in
Snow Depth Not available.
6:38 AM 6:10 PM
Waxing Crescent, 3% visible
METAR KLCH 280653Z AUTO 17010KT 7SM FEW009 SCT025 OVC055 22/21 A3002 RMK AO2 SLP173 T02220206 $
Pressure 30.04 in
Visibility 7.0 miles
Clouds Few 900 ft
Scattered Clouds 2500 ft
Overcast 5500 ft
Dew Point 69 °F
Humidity 95%
Rainfall 0.00 in
Snow Depth Not available.
6:38 AM 6:10 PM
Waxing Crescent, 3% visible
METAR KLCH 280653Z AUTO 17010KT 7SM FEW009 SCT025 OVC055 22/21 A3002 RMK AO2 SLP173 T02220206 $

Get Your Daily Forecast Email!

Thanks for signing up!

Be on the lookout for a verification email in your inbox.

You'll start receiving the daily forecast at 8 AM.

×

10-Day Weather Forecast

Almanac

Astronomy

Feb. 28, 2017 Rise Set
Actual Time
Civil Twilight
Nautical Twilight
Astronomical Twilight
Moon
Length of Visible Light
Length of Day
Tomorrow will be .
, % of the Moon is Illuminated

Today's Extremes

State Highs State Lows

Community

WunderPhotos

Upload Photos

1,962,540 photos uploaded!

WunderBlog® & News

Nearby

Air Quality

  Air Quality AQ Index Pollutant
Not available.

Snow Depth

Station Depth Elevation

Earthquake Activity

City Distance Mag. Time & Date
Minimum magnitude displayed is 2.5.

Coastal Water Temperatures

Place Temperature

Stations

Nearby Weather Stations

Station Location Temp. Windchill Dew Point Humidity Wind Precip. Elev Updated Type
                   

Watches & Warnings

There are currently no watches in effect.